Time;durP1;ratioP1;P1;durP2;ratioP2;P2;SDS_P1;SDS_P2;PMS_P1;PMS_P2;Temp;Humidity;BMP_temperature;BMP_pressure;BME280_temperature;BME280_humidity;BME280_pressure;Samples;Min_cycle;Max_cycle;Signal;HPM_P1;HPM_P2
2023/03/15 00:03:44;;;;;;;;;5.50;5.50;;;;;7.24;82.88;100932.00;5053188;28;45816;-79
2023/03/15 00:06:11;;;;;;;;;8.50;5.00;;;;;7.30;81.74;100931.69;5053733;28;45633;-77
2023/03/15 00:08:36;;;;;;;;;6.25;6.00;;;;;7.25;81.96;100918.06;5053305;28;45701;-75
2023/03/15 00:11:02;;;;;;;;;5.75;5.75;;;;;7.25;82.47;100915.44;5053263;28;46939;-76
2023/03/15 00:13:29;;;;;;;;;5.00;5.00;;;;;7.23;81.37;100916.47;5053390;28;45456;-77
2023/03/15 00:16:00;;;;;;;;;8.75;7.25;;;;;7.31;81.59;100922.09;5053256;28;45528;-76
2023/03/15 00:18:26;;;;;;;;;8.00;5.50;;;;;7.28;82.58;100915.31;5053007;28;46455;-76
2023/03/15 00:20:51;;;;;;;;;7.50;6.00;;;;;7.35;81.42;100929.69;5053121;28;46176;-78
2023/03/15 00:23:18;;;;;;;;;7.50;6.00;;;;;7.28;81.24;100930.94;5053374;28;45634;-77
2023/03/15 00:25:45;;;;;;;;;5.00;5.00;;;;;7.28;81.84;100919.69;5053403;28;45548;-76
2023/03/15 00:28:11;;;;;;;;;5.50;5.00;;;;;7.22;82.34;100912.19;5053190;28;46473;-78
2023/03/15 00:33:58;;;;;;;;;6.25;6.25;;;;;7.29;82.72;100916.97;5062994;27;45916;-77
2023/03/15 00:36:24;;;;;;;;;9.00;7.25;;;;;7.39;83.29;100931.22;5056978;28;45721;-77
2023/03/15 00:38:52;;;;;;;;;7.75;6.00;;;;;7.43;83.09;100929.28;5056020;28;45729;-77
2023/03/15 00:41:19;;;;;;;;;5.75;5.75;;;;;7.40;82.60;100919.84;5055921;28;46091;-77
2023/03/15 00:43:46;;;;;;;;;5.75;5.00;;;;;7.43;82.80;100934.50;5056278;28;45917;-77
2023/03/15 00:49:33;;;;;;;;;9.25;5.75;;;;;7.42;82.25;100928.44;5056119;28;45662;-74
2023/03/15 00:51:58;;;;;;;;;5.00;5.00;;;;;7.46;82.49;100944.75;5056562;28;45900;-76
2023/03/15 00:54:23;;;;;;;;;8.00;4.75;;;;;7.46;82.33;100939.53;5056383;28;45620;-74
2023/03/15 00:56:49;;;;;;;;;5.00;5.00;;;;;7.39;82.22;100930.38;5056141;28;45921;-76
2023/03/15 00:59:14;;;;;;;;;4.75;4.50;;;;;7.45;82.43;100948.31;5056148;28;48226;-77
2023/03/15 01:01:43;;;;;;;;;6.00;4.25;;;;;7.42;82.43;100940.63;5055925;28;47036;-77
2023/03/15 01:04:12;;;;;;;;;6.25;5.25;;;;;7.46;82.38;100947.34;5055832;28;45861;-75
2023/03/15 01:06:39;;;;;;;;;8.00;5.50;;;;;7.46;82.58;100958.63;5056169;28;45628;-77
2023/03/15 01:09:04;;;;;;;;;7.50;6.00;;;;;7.46;82.33;100956.03;5055770;28;45660;-76
2023/03/15 01:11:30;;;;;;;;;4.50;0.00;;;;;7.42;82.13;100953.66;5055823;28;46121;-76
2023/03/15 01:13:57;;;;;;;;;6.00;5.00;;;;;7.45;82.11;100956.94;5055677;28;45724;-76
2023/03/15 01:19:44;;;;;;;;;6.50;5.00;;;;;7.45;81.94;100962.16;5055905;28;45726;-77
2023/03/15 01:22:09;;;;;;;;;6.00;5.50;;;;;7.37;81.74;100946.09;5055800;28;46297;-74
2023/03/15 01:24:34;;;;;;;;;5.00;5.00;;;;;7.40;81.54;100963.31;5056020;28;45527;-76
2023/03/15 01:27:00;;;;;;;;;5.00;4.50;;;;;7.36;81.99;100954.81;5056314;28;45522;-76
2023/03/15 01:29:25;;;;;;;;;6.00;5.00;;;;;7.27;81.61;100946.66;5055434;28;46442;-75
2023/03/15 01:35:13;;;;;;;;;5.25;4.75;;;;;7.25;81.48;100956.31;5065050;27;45758;-78
2023/03/15 01:37:39;;;;;;;;;4.00;2.25;;;;;7.25;81.64;100959.75;5057528;28;45519;-77
2023/03/15 01:40:05;;;;;;;;;4.25;4.00;;;;;7.25;81.97;100964.97;5056464;28;46354;-77
2023/03/15 01:42:30;;;;;;;;;5.00;5.00;;;;;7.24;81.39;100976.31;5055607;28;46345;-77
2023/03/15 01:45:01;;;;;;;;;5.00;4.00;;;;;7.19;81.12;100970.50;5056267;28;45636;-77
2023/03/15 01:47:27;;;;;;;;;6.00;5.00;;;;;7.16;81.83;100974.09;5055882;28;45594;-77
2023/03/15 01:50:01;;;;;;;;;4.50;4.50;;;;;7.13;82.15;100971.63;5055174;28;46631;-77
2023/03/15 01:52:32;;;;;;;;;9.00;7.00;;;;;7.13;82.49;100968.19;5055552;28;46254;-77
2023/03/15 01:55:09;;;;;;;;;4.75;4.25;;;;;7.10;82.15;100968.34;5055808;28;45930;-77
2023/03/15 01:57:38;;;;;;;;;5.00;5.00;;;;;7.09;82.23;100977.09;5055445;28;45791;-78
2023/03/15 02:06:34;;;;;;;;;8.00;5.00;;;;;6.97;82.09;100952.50;5055338;28;45814;-77
2023/03/15 02:09:03;;;;;;;;;4.50;4.50;;;;;7.04;81.72;100979.09;5055804;28;45735;-78
2023/03/15 02:11:29;;;;;;;;;6.00;3.50;;;;;6.93;81.61;100965.75;5059610;28;46841;-79
2023/03/15 02:13:56;;;;;;;;;5.00;5.00;;;;;6.85;81.65;100953.16;5062322;28;46119;-77
2023/03/15 02:16:23;;;;;;;;;4.00;4.00;;;;;6.90;82.22;100953.75;5058015;28;45678;-78
2023/03/15 02:18:48;;;;;;;;;5.50;3.50;;;;;6.91;82.03;100963.22;5056629;28;45615;-75
2023/03/15 02:21:19;;;;;;;;;4.00;4.00;;;;;6.90;81.86;100955.50;5055326;28;46195;-76
2023/03/15 02:23:50;;;;;;;;;5.00;5.00;;;;;6.95;81.34;100963.94;5056057;28;46052;-78
2023/03/15 02:26:32;;;;;;;;;6.00;4.00;;;;;6.91;81.59;100958.00;5055658;28;45856;-78
2023/03/15 02:28:57;;;;;;;;;4.50;4.00;;;;;6.88;81.14;100960.78;5055882;28;45895;-77
2023/03/15 02:31:23;;;;;;;;;2.00;2.00;;;;;6.85;80.61;100955.75;5055754;28;45679;-76
2023/03/15 02:33:51;;;;;;;;;4.00;4.00;;;;;6.70;80.66;100953.88;5055912;28;45603;-77
2023/03/15 02:36:23;;;;;;;;;5.00;2.00;;;;;6.67;80.58;100957.50;5074908;28;45888;-76
2023/03/15 02:38:50;;;;;;;;;4.25;3.00;;;;;6.61;80.64;100957.78;5075833;28;45698;-76
2023/03/15 02:41:23;;;;;;;;;5.00;4.00;;;;;6.59;81.03;100961.38;5074881;28;46819;-76
2023/03/15 02:43:54;;;;;;;;;4.00;2.50;;;;;6.52;80.84;100966.06;5075373;28;46096;-77
2023/03/15 02:46:20;;;;;;;;;5.25;3.00;;;;;6.47;80.68;100959.38;5057342;28;45836;-77
2023/03/15 02:48:46;;;;;;;;;4.75;3.00;;;;;6.40;80.80;100956.22;5074830;28;45593;-77
2023/03/15 02:51:26;;;;;;;;;4.00;2.00;;;;;6.28;80.59;100947.25;5075031;28;45750;-78
2023/03/15 02:53:52;;;;;;;;;3.50;3.00;;;;;6.30;80.63;100952.41;5074534;28;46245;-77
2023/03/15 02:56:18;;;;;;;;;5.00;5.00;;;;;6.21;80.54;100953.66;5056753;28;45695;-78
2023/03/15 02:58:46;;;;;;;;;3.00;2.00;;;;;6.23;81.04;100953.59;5075911;28;45497;-78
2023/03/15 03:01:13;;;;;;;;;8.25;5.50;;;;;6.15;80.90;100947.94;5075480;28;47298;-76
2023/03/15 03:03:42;;;;;;;;;4.00;2.00;;;;;6.25;80.99;100962.19;5076522;28;46225;-77
2023/03/15 03:06:09;;;;;;;;;6.00;4.00;;;;;6.23;80.80;100964.84;5076245;28;46014;-75
2023/03/15 03:08:36;;;;;;;;;2.00;2.00;;;;;6.18;80.76;100977.22;5074400;28;45789;-77
2023/03/15 03:11:02;;;;;;;;;3.00;2.50;;;;;6.10;80.90;100973.31;5074384;28;46603;-77
2023/03/15 03:13:27;;;;;;;;;4.50;3.50;;;;;6.05;80.87;100973.50;5074642;28;46055;-77
2023/03/15 03:15:57;;;;;;;;;4.25;4.00;;;;;6.04;80.94;100981.41;5074585;28;45535;-76
2023/03/15 03:21:44;;;;;;;;;4.00;2.00;;;;;5.93;80.71;100979.28;5074292;28;45631;-77
2023/03/15 03:24:10;;;;;;;;;4.00;4.00;;;;;5.92;81.15;100988.00;5058142;28;47565;-77
2023/03/15 03:26:36;;;;;;;;;2.00;2.00;;;;;5.92;80.99;100990.59;5077271;28;45795;-77
2023/03/15 03:29:04;;;;;;;;;3.00;2.00;;;;;5.93;81.07;101001.84;5077141;28;45814;-76
2023/03/15 03:31:32;;;;;;;;;4.00;2.00;;;;;5.81;80.90;100982.41;5077260;28;45575;-77
2023/03/15 03:37:34;;;;;;;;;4.00;2.00;;;;;5.79;81.35;100994.63;5059440;27;46050;-76
2023/03/15 03:40:00;;;;;;;;;4.00;4.00;;;;;5.79;81.39;100994.63;5053990;28;45728;-76
2023/03/15 03:42:25;;;;;;;;;4.75;2.00;;;;;5.77;81.35;100999.91;5053854;28;46722;-76
2023/03/15 03:44:52;;;;;;;;;4.75;4.00;;;;;5.76;81.41;100997.38;5053696;28;46003;-76
2023/03/15 03:47:19;;;;;;;;;2.00;2.00;;;;;5.73;81.34;100987.09;5053470;28;45548;-76
2023/03/15 03:49:44;;;;;;;;;2.50;2.00;;;;;5.75;80.92;100991.31;5053713;28;45514;-76
2023/03/15 03:52:09;;;;;;;;;2.00;2.00;;;;;5.71;81.59;100984.59;5053640;28;46450;-77
2023/03/15 03:54:35;;;;;;;;;4.00;4.00;;;;;5.72;81.60;100983.66;5053686;28;45605;-78
2023/03/15 03:57:00;;;;;;;;;5.00;3.50;;;;;5.73;81.12;100987.94;5053504;28;45679;-76
2023/03/15 03:59:26;;;;;;;;;7.00;4.00;;;;;5.74;82.05;100988.78;5053544;28;45914;-75
2023/03/15 04:01:51;;;;;;;;;3.50;2.00;;;;;5.76;81.45;100994.78;5053273;28;46494;-77
2023/03/15 04:07:38;;;;;;;;;1.75;1.75;;;;;5.74;82.12;100994.84;5055021;28;45549;-78
2023/03/15 04:10:04;;;;;;;;;2.50;1.50;;;;;5.78;81.98;100998.97;5057385;28;45802;-78
2023/03/15 04:12:31;;;;;;;;;4.50;2.00;;;;;5.81;81.92;101001.44;5057079;28;47501;-78
2023/03/15 04:14:56;;;;;;;;;4.00;3.00;;;;;5.81;81.21;101014.44;5057715;28;46158;-75
2023/03/15 04:17:23;;;;;;;;;2.50;1.50;;;;;5.80;81.85;101006.72;5056854;28;45915;-79
2023/03/15 04:19:49;;;;;;;;;1.00;0.00;;;;;5.79;81.52;101011.06;5062085;28;45806;-77
2023/03/15 04:22:15;;;;;;;;;4.00;2.00;;;;;5.81;82.03;101009.25;5061557;28;46382;-77
2023/03/15 04:24:41;;;;;;;;;5.00;2.00;;;;;5.80;81.40;101009.31;5045375;28;45711;-77
2023/03/15 04:27:08;;;;;;;;;4.75;2.50;;;;;5.81;82.04;101006.66;5056552;28;45633;-77
2023/03/15 04:29:34;;;;;;;;;0.50;0.50;;;;;5.81;81.75;101006.66;5056767;28;45544;-76
2023/03/15 04:32:01;;;;;;;;;2.50;1.25;;;;;5.86;82.18;100993.44;5056844;28;46171;-74
2023/03/15 04:37:47;;;;;;;;;5.50;1.25;;;;;5.84;81.60;100993.50;5059780;28;46002;-76
2023/03/15 04:40:13;;;;;;;;;2.00;1.75;;;;;5.88;82.09;100991.66;5038503;28;45850;-76
2023/03/15 04:42:38;;;;;;;;;3.50;2.00;;;;;5.91;82.48;100994.09;5056483;28;45923;-77
2023/03/15 04:45:04;;;;;;;;;4.00;2.00;;;;;5.94;82.60;100990.53;5056800;28;45521;-75
2023/03/15 04:47:30;;;;;;;;;3.50;3.50;;;;;6.00;82.37;101004.06;5057833;28;45743;-76
2023/03/15 04:53:16;;;;;;;;;2.00;1.25;;;;;6.05;81.62;101016.88;5059222;28;45696;-77
2023/03/15 04:55:42;;;;;;;;;3.50;2.00;;;;;6.04;81.68;101021.25;5058939;28;46056;-77
2023/03/15 04:58:07;;;;;;;;;1.25;1.00;;;;;6.02;81.54;101007.47;5057552;28;45656;-76
2023/03/15 05:00:32;;;;;;;;;1.00;1.00;;;;;5.89;81.59;100982.91;5056173;28;45792;-77
2023/03/15 05:02:58;;;;;;;;;3.50;1.25;;;;;6.00;81.80;101004.06;5055843;28;47231;-77
2023/03/15 05:05:23;;;;;;;;;1.50;1.25;;;;;6.02;82.40;101007.47;5056296;28;46600;-77
2023/03/15 05:07:49;;;;;;;;;2.00;1.00;;;;;6.05;81.96;101015.09;5055877;28;45637;-77
2023/03/15 05:10:14;;;;;;;;;4.50;1.75;;;;;6.06;81.71;101018.56;5056145;28;45512;-77
2023/03/15 05:12:40;;;;;;;;;5.50;4.00;;;;;5.97;81.50;101017.22;5056057;28;46456;-75
2023/03/15 05:15:06;;;;;;;;;1.00;1.00;;;;;6.01;81.69;101025.72;5057343;28;47698;-75
2023/03/15 05:17:32;;;;;;;;;1.25;1.00;;;;;6.05;81.31;101037.66;5057701;28;45521;-76
2023/03/15 05:23:21;;;;;;;;;3.50;1.00;;;;;5.97;81.88;101034.59;5057365;28;45595;-76
2023/03/15 05:25:52;;;;;;;;;4.00;2.00;;;;;5.95;81.35;101037.25;5056438;28;46302;-75
2023/03/15 05:28:19;;;;;;;;;2.00;2.00;;;;;5.94;81.83;101032.97;5055460;28;45894;-77
2023/03/15 05:30:44;;;;;;;;;2.00;2.00;;;;;5.95;82.09;101028.59;5055542;28;45679;-77
2023/03/15 05:33:10;;;;;;;;;4.00;2.00;;;;;5.99;82.11;101027.56;5055610;28;47580;-76
2023/03/15 05:38:57;;;;;;;;;1.00;1.00;;;;;5.97;82.02;101034.59;5063364;28;45696;-75
2023/03/15 05:41:22;;;;;;;;;2.00;1.00;;;;;5.97;82.02;101032.84;5055570;28;45649;-76
2023/03/15 05:43:51;;;;;;;;;2.00;1.75;;;;;5.96;81.94;101022.50;5056000;28;45684;-74
2023/03/15 05:46:16;;;;;;;;;3.00;1.00;;;;;5.98;82.24;101031.94;5055161;28;46309;-75
2023/03/15 05:48:42;;;;;;;;;2.00;1.00;;;;;5.99;82.15;101030.19;5037109;28;45542;-76
2023/03/15 05:51:08;;;;;;;;;1.00;1.00;;;;;6.00;82.17;101035.28;5055659;28;45669;-78
2023/03/15 05:53:33;;;;;;;;;2.00;2.00;;;;;6.03;82.13;101040.38;5055356;28;46429;-77
2023/03/15 05:55:59;;;;;;;;;2.00;2.00;;;;;6.06;82.30;101041.97;5037442;28;46659;-77
2023/03/15 05:58:25;;;;;;;;;1.25;1.00;;;;;6.03;82.37;101034.31;5055155;28;45739;-76
2023/03/15 06:00:50;;;;;;;;;4.00;1.00;;;;;6.10;82.03;101038.34;5055941;28;45571;-77
2023/03/15 06:03:15;;;;;;;;;1.75;1.25;;;;;6.10;81.99;101053.94;5055544;28;47471;-76
2023/03/15 06:09:03;;;;;;;;;3.50;1.00;;;;;6.13;82.35;101056.38;5056203;28;46049;-76
2023/03/15 06:11:28;;;;;;;;;4.00;2.00;;;;;6.16;82.54;101061.44;5056733;28;45813;-78
2023/03/15 06:13:53;;;;;;;;;0.75;0.75;;;;;6.13;82.47;101054.63;5056482;28;45603;-76
2023/03/15 06:16:19;;;;;;;;;1.00;1.00;;;;;6.15;82.06;101059.78;5057457;28;45649;-77
2023/03/15 06:18:44;;;;;;;;;5.75;2.00;;;;;6.12;82.10;101052.09;5039726;28;45675;-77
2023/03/15 06:24:31;;;;;;;;;0.75;0.75;;;;;6.16;82.31;101051.03;5057348;28;45574;-74
2023/03/15 06:26:57;;;;;;;;;3.50;1.75;;;;;6.21;82.02;101055.09;5055689;28;47161;-74
2023/03/15 06:29:23;;;;;;;;;1.75;1.00;;;;;6.22;81.87;101066.34;5054775;28;45612;-73
2023/03/15 06:31:49;;;;;;;;;3.00;1.00;;;;;6.23;82.46;101055.03;5036711;28;45604;-72
2023/03/15 06:34:15;;;;;;;;;2.00;1.00;;;;;6.27;82.88;101059.19;5054283;28;47471;-72
2023/03/15 06:36:41;;;;;;;;;2.00;2.00;;;;;6.36;82.87;101064.00;5054425;28;46665;-74
2023/03/15 06:39:07;;;;;;;;;2.00;1.00;;;;;6.43;83.04;101070.56;5054924;28;45601;-75
2023/03/15 06:41:32;;;;;;;;;2.00;1.00;;;;;6.48;83.01;101065.19;5055457;28;45698;-72
2023/03/15 06:43:58;;;;;;;;;4.75;2.00;;;;;6.53;82.61;101071.00;5054371;28;47118;-74
2023/03/15 06:46:23;;;;;;;;;1.75;1.75;;;;;6.58;82.78;101063.81;5035513;28;47184;-72
2023/03/15 06:48:49;;;;;;;;;4.00;2.00;;;;;6.61;82.83;101077.53;5036046;28;46056;-73
2023/03/15 06:54:36;;;;;;;;;1.75;1.00;;;;;6.63;82.50;101073.09;5055110;28;46023;-72
2023/03/15 06:57:02;;;;;;;;;2.00;1.00;;;;;6.62;82.35;101076.63;5054681;28;47012;-77
2023/03/15 06:59:27;;;;;;;;;2.50;2.00;;;;;6.69;82.33;101077.19;5070907;28;45635;-74
2023/03/15 07:01:53;;;;;;;;;5.25;4.00;;;;;6.68;82.82;101070.28;5055097;28;45928;-73
2023/03/15 07:04:18;;;;;;;;;3.50;3.50;;;;;6.75;82.55;101076.88;5054681;28;46869;-76
2023/03/15 07:10:05;;;;;;;;;8.50;2.00;;;;;6.81;82.17;101078.34;5054446;28;45654;-75
2023/03/15 07:12:31;;;;;;;;;2.50;2.00;;;;;6.82;81.36;101082.63;5055083;28;45564;-73
2023/03/15 07:14:56;;;;;;;;;4.25;2.00;;;;;6.83;81.34;101089.53;5055036;28;45692;-75
2023/03/15 07:17:22;;;;;;;;;4.75;4.00;;;;;6.77;82.08;101069.00;5054757;28;45726;-73
2023/03/15 07:19:47;;;;;;;;;4.50;3.00;;;;;6.89;81.67;101094.44;5054572;28;45697;-72
2023/03/15 07:22:13;;;;;;;;;2.25;1.50;;;;;6.71;82.04;101057.09;5069368;28;45447;-74
2023/03/15 07:24:38;;;;;;;;;3.00;2.00;;;;;6.94;82.28;101098.53;5053643;28;46691;-73
2023/03/15 07:27:04;;;;;;;;;2.00;2.00;;;;;6.99;82.02;101100.91;5069036;28;48378;-73
2023/03/15 07:29:32;;;;;;;;;2.00;2.00;;;;;6.65;81.05;101054.78;5035551;28;45746;-73
2023/03/15 07:32:00;;;;;;;;;14.25;12.00;;;;;6.98;80.99;101109.63;5053838;28;45562;-74
2023/03/15 07:34:25;;;;;;;;;12.25;8.50;;;;;6.87;81.13;101093.66;5035589;28;47511;-71
2023/03/15 07:40:13;;;;;;;;;5.00;3.50;;;;;7.05;81.39;101116.22;5071980;27;45685;-73
2023/03/15 07:42:39;;;;;;;;;5.00;4.00;;;;;7.06;81.11;101125.75;5073385;28;45919;-73
2023/03/15 07:45:06;;;;;;;;;2.00;1.50;;;;;7.07;81.37;101123.03;5073667;28;47345;-74
2023/03/15 07:47:31;;;;;;;;;2.50;2.50;;;;;7.10;81.78;101122.91;5073575;28;46329;-74
2023/03/15 07:49:57;;;;;;;;;4.00;2.00;;;;;7.08;81.12;101118.69;5073964;28;45530;-74
2023/03/15 07:52:23;;;;;;;;;2.50;2.00;;;;;7.18;80.98;101127.72;5074045;28;45581;-73
2023/03/15 07:54:48;;;;;;;;;4.75;2.75;;;;;7.20;81.53;101125.91;5073218;28;47071;-73
2023/03/15 07:57:13;;;;;;;;;2.25;1.75;;;;;7.19;81.06;101121.59;5073246;28;45973;-74
2023/03/15 07:59:39;;;;;;;;;4.00;4.00;;;;;7.27;80.92;101123.84;5055130;28;45665;-73
2023/03/15 08:02:04;;;;;;;;;4.75;4.75;;;;;7.25;80.41;101126.53;5073610;28;45569;-73
2023/03/15 08:04:30;;;;;;;;;4.75;4.00;;;;;7.22;80.67;101124.09;5073915;28;45525;-72
2023/03/15 08:10:17;;;;;;;;;4.25;4.00;;;;;7.29;80.91;101142.88;5073621;28;45777;-73
2023/03/15 08:12:43;;;;;;;;;4.00;2.00;;;;;7.34;81.05;101140.88;5074019;28;45598;-73
2023/03/15 08:15:13;;;;;;;;;7.75;5.25;;;;;7.38;80.48;101151.06;5073395;28;47617;-73
2023/03/15 08:17:40;;;;;;;;;5.00;4.75;;;;;7.40;80.27;101149.22;5073727;28;46400;-73
2023/03/15 08:20:10;;;;;;;;;5.00;4.25;;;;;7.47;80.48;101150.63;5072990;28;45721;-73
2023/03/15 08:26:26;;;;;;;;;3.75;2.50;;;;;7.55;80.18;101156.31;5072984;28;46502;-72
2023/03/15 08:28:51;;;;;;;;;5.25;5.00;;;;;7.62;80.33;101163.78;5073054;28;46284;-73
2023/03/15 08:31:16;;;;;;;;;6.75;5.00;;;;;7.60;80.50;101156.06;5073497;28;45741;-73
2023/03/15 08:33:42;;;;;;;;;4.25;4.25;;;;;7.72;80.59;101167.66;5073242;28;45723;-73
2023/03/15 08:36:08;;;;;;;;;4.00;4.00;;;;;7.78;80.42;101169.94;5072713;28;46499;-73
2023/03/15 08:38:34;;;;;;;;;4.75;4.00;;;;;7.79;79.86;101164.66;5072779;28;47245;-73
2023/03/15 08:40:59;;;;;;;;;6.75;3.00;;;;;7.85;80.51;101168.72;5055626;28;45931;-72
2023/03/15 08:43:25;;;;;;;;;5.00;5.00;;;;;7.89;79.86;101171.06;5053267;28;45545;-72
2023/03/15 08:45:51;;;;;;;;;3.00;3.00;;;;;7.94;79.56;101178.66;5052866;28;47435;-73
2023/03/15 08:48:16;;;;;;;;;3.50;3.50;;;;;7.96;79.52;101176.84;5052755;28;46046;-73
2023/03/15 08:50:42;;;;;;;;;4.00;3.25;;;;;7.94;79.91;101166.47;5034412;28;45572;-73
2023/03/15 08:53:08;;;;;;;;;7.00;5.00;;;;;7.97;80.36;101165.47;5052905;28;45618;-73
2023/03/15 08:55:34;;;;;;;;;2.75;2.00;;;;;8.13;79.53;101189.88;5055536;28;46334;-73
2023/03/15 08:58:02;;;;;;;;;7.50;5.00;;;;;8.16;79.80;101181.88;5056211;28;46200;-73
2023/03/15 09:00:27;;;;;;;;;3.00;3.00;;;;;8.19;79.94;101178.28;5056512;28;45780;-72
2023/03/15 09:02:53;;;;;;;;;5.50;5.00;;;;;8.30;80.04;101181.19;5056229;28;45557;-74
2023/03/15 09:05:20;;;;;;;;;6.75;5.00;;;;;8.37;80.28;101186.00;5056095;28;46555;-74
2023/03/15 09:11:07;;;;;;;;;4.50;3.00;;;;;8.53;80.48;101186.03;5056125;28;45625;-73
2023/03/15 09:13:32;;;;;;;;;3.00;3.00;;;;;8.62;79.79;101184.72;5056393;28;45449;-73
2023/03/15 09:15:58;;;;;;;;;4.50;3.50;;;;;8.69;80.25;101199.13;5056606;28;45621;-75
2023/03/15 09:18:23;;;;;;;;;6.00;3.00;;;;;8.70;78.81;101188.59;5056344;28;45620;-72
2023/03/15 09:20:49;;;;;;;;;5.00;3.00;;;;;8.76;78.25;101198.69;5055914;28;45547;-72
2023/03/15 09:23:14;;;;;;;;;2.50;2.00;;;;;8.80;78.23;101201.97;5056243;28;45504;-72
2023/03/15 09:25:40;;;;;;;;;2.25;2.00;;;;;8.82;78.17;101197.53;5037509;28;47520;-74
2023/03/15 09:28:08;;;;;;;;;1.25;1.00;;;;;8.86;78.17;101188.59;5055129;28;46343;-73
2023/03/15 09:30:35;;;;;;;;;1.75;1.00;;;;;8.93;78.01;101199.56;5055673;28;45804;-73
2023/03/15 09:33:01;;;;;;;;;3.00;2.25;;;;;8.95;77.67;101188.09;5055704;28;45653;-73
2023/03/15 09:35:26;;;;;;;;;2.00;2.00;;;;;8.99;78.03;101186.16;5037616;28;46721;-74
2023/03/15 09:41:40;;;;;;;;;4.00;1.25;;;;;9.09;77.20;101187.31;5062183;27;45856;-74
2023/03/15 09:44:11;;;;;;;;;2.25;1.25;;;;;9.12;77.90;101190.59;5055654;28;45611;-72
2023/03/15 09:46:50;;;;;;;;;1.75;1.00;;;;;9.22;76.74;101197.03;5055347;28;46673;-74
2023/03/15 09:49:36;;;;;;;;;2.50;1.50;;;;;9.28;77.06;101195.84;5055923;28;46441;-72
2023/03/15 09:52:23;;;;;;;;;2.00;1.25;;;;;9.33;77.90;101190.34;5055533;28;45812;-73
2023/03/15 09:54:54;;;;;;;;;2.25;1.50;;;;;9.47;77.74;101198.25;5055603;28;45945;-73
2023/03/15 09:57:29;;;;;;;;;1.25;1.00;;;;;9.52;77.16;101177.91;5055986;28;45541;-74
2023/03/15 09:59:55;;;;;;;;;2.00;1.00;;;;;9.68;77.65;101186.53;5055063;28;47312;-73
2023/03/15 10:02:24;;;;;;;;;0.25;0.25;;;;;9.78;77.43;101185.06;5053834;28;45528;-73
2023/03/15 10:04:56;;;;;;;;;1.00;1.00;;;;;9.82;76.46;101181.38;5054770;28;45597;-73
2023/03/15 10:07:22;;;;;;;;;1.00;1.00;;;;;9.91;75.92;101195.69;5070207;28;48430;-73
2023/03/15 10:09:47;;;;;;;;;0.50;0.00;;;;;9.94;75.77;101193.72;5054840;28;46376;-73
2023/03/15 10:12:40;;;;;;;;;1.00;1.00;;;;;9.92;75.64;101192.97;5055187;28;45963;-74
2023/03/15 10:15:31;;;;;;;;;2.00;0.50;;;;;9.95;75.41;101187.53;4973494;28;45603;-73
2023/03/15 10:18:21;;;;;;;;;2.00;1.00;;;;;10.00;75.72;101195.13;4973558;28;45629;-73
2023/03/15 10:21:02;;;;;;;;;2.00;1.00;;;;;10.06;76.08;101186.91;4973341;28;46942;-74
2023/03/15 10:23:38;;;;;;;;;2.00;1.00;;;;;10.09;75.91;101182.31;4957004;28;45583;-73
2023/03/15 10:26:11;;;;;;;;;1.75;1.00;;;;;10.18;75.19;101188.00;4973332;28;45792;-73
2023/03/15 10:28:37;;;;;;;;;2.00;1.00;;;;;10.22;74.95;101185.09;4973504;28;45666;-73
2023/03/15 10:31:17;;;;;;;;;2.00;1.25;;;;;10.27;75.39;101179.56;4973312;28;46162;-73
2023/03/15 10:33:44;;;;;;;;;2.00;1.25;;;;;10.27;74.57;101176.94;4973110;28;45876;-73
2023/03/15 10:39:18;;;;;;;;;1.25;1.00;;;;;10.37;75.20;101183.31;4972618;28;45709;-73
2023/03/15 10:41:46;;;;;;;;;1.00;0.00;;;;;10.45;75.06;101178.47;4987347;28;46370;-73
2023/03/15 10:44:23;;;;;;;;;2.25;0.75;;;;;10.55;75.69;101176.94;4992904;28;45603;-74
2023/03/15 10:47:00;;;;;;;;;1.00;1.00;;;;;10.65;74.69;101174.59;4992862;28;45570;-75
2023/03/15 10:49:38;;;;;;;;;0.75;0.75;;;;;10.69;73.60;101174.31;4992399;28;46535;-73
2023/03/15 10:55:34;;;;;;;;;0.00;0.00;;;;;10.73;72.96;101172.34;5074581;28;45702;-74
2023/03/15 10:58:17;;;;;;;;;1.00;1.00;;;;;10.71;72.68;101166.34;5073325;28;46000;-72
2023/03/15 11:00:51;;;;;;;;;0.50;0.50;;;;;10.72;72.88;101163.66;5074419;28;47782;-73
2023/03/15 11:03:17;;;;;;;;;1.75;0.00;;;;;10.74;72.54;101167.00;5074830;28;46170;-73
2023/03/15 11:05:45;;;;;;;;;3.00;2.00;;;;;10.78;73.28;101162.44;5074547;28;45659;-73
2023/03/15 11:11:55;;;;;;;;;1.00;0.50;;;;;10.95;73.89;101164.81;5074261;28;45778;-72
2023/03/15 11:14:21;;;;;;;;;1.00;0.00;;;;;10.97;72.31;101169.94;5074319;28;47618;-72
2023/03/15 11:16:51;;;;;;;;;1.25;1.00;;;;;11.00;72.44;101170.63;5073509;28;45686;-73
2023/03/15 11:19:19;;;;;;;;;0.75;0.00;;;;;10.97;73.03;101160.31;5074508;28;45593;-72
2023/03/15 11:21:48;;;;;;;;;0.00;0.00;;;;;10.98;73.54;101162.00;5074271;28;46422;-71
2023/03/15 11:24:28;;;;;;;;;0.00;0.00;;;;;11.06;71.32;101162.34;5073899;28;46030;-74
2023/03/15 11:26:56;;;;;;;;;0.50;0.25;;;;;11.03;70.72;101157.28;5074404;28;45702;-73
2023/03/15 11:29:24;;;;;;;;;0.00;0.00;;;;;10.97;69.98;101162.09;5074595;28;45639;-73
2023/03/15 11:31:51;;;;;;;;;0.25;0.25;;;;;10.92;70.17;101160.59;5074530;28;45466;-73
2023/03/15 11:34:23;;;;;;;;;0.00;0.00;;;;;10.90;71.03;101157.22;5074414;28;45617;-72
2023/03/15 11:36:55;;;;;;;;;0.50;0.50;;;;;10.94;71.40;101160.50;5074112;28;45727;-74
2023/03/15 11:39:35;;;;;;;;;1.00;0.75;;;;;10.93;70.21;101162.28;5074391;28;46007;-72
2023/03/15 11:42:07;;;;;;;;;1.00;0.75;;;;;11.01;70.15;101163.59;5073657;28;45733;-73
2023/03/15 11:44:39;;;;;;;;;1.00;0.00;;;;;11.05;71.02;101170.31;5073724;28;45513;-72
2023/03/15 11:47:33;;;;;;;;;1.00;1.00;;;;;11.03;71.87;101156.44;5055420;28;45784;-73
2023/03/15 11:49:58;;;;;;;;;1.25;1.00;;;;;11.15;70.30;101174.03;5073810;28;45804;-72
2023/03/15 11:52:27;;;;;;;;;0.75;0.00;;;;;11.20;69.90;101177.19;5073947;28;45592;-73
2023/03/15 11:55:05;;;;;;;;;1.00;0.00;;;;;11.19;70.60;101160.63;5073742;28;46301;-73
2023/03/15 11:57:39;;;;;;;;;1.00;1.00;;;;;11.27;70.05;101160.97;5055463;28;46258;-72
2023/03/15 12:00:25;;;;;;;;;1.00;0.25;;;;;11.40;69.50;101168.00;5073792;28;45723;-72
2023/03/15 12:02:56;;;;;;;;;0.00;0.00;;;;;11.42;68.44;101168.78;5073472;28;47401;-73
2023/03/15 12:05:58;;;;;;;;;1.00;1.00;;;;;11.42;68.13;101167.00;5073843;28;46625;-74
2023/03/15 12:08:50;;;;;;;;;0.75;0.75;;;;;11.46;68.47;101162.38;5073622;28;45608;-73
2023/03/15 12:11:18;;;;;;;;;0.00;0.00;;;;;11.50;68.04;101167.31;5072483;28;45939;-72
2023/03/15 12:14:04;;;;;;;;;1.00;1.00;;;;;11.52;67.30;101164.59;5073746;28;46649;-72
2023/03/15 12:16:40;;;;;;;;;0.00;0.00;;;;;11.58;67.35;101170.28;5073614;28;46254;-74
2023/03/15 12:19:15;;;;;;;;;1.00;1.00;;;;;11.64;67.33;101166.41;5055484;28;45719;-73
2023/03/15 12:21:47;;;;;;;;;0.00;0.00;;;;;11.65;67.14;101155.81;5073811;28;45537;-72
2023/03/15 12:24:20;;;;;;;;;1.00;1.00;;;;;11.74;65.42;101162.25;5055832;28;46690;-72
2023/03/15 12:26:48;;;;;;;;;0.00;0.00;;;;;11.78;65.40;101155.84;5073035;28;46272;-73
2023/03/15 12:29:21;;;;;;;;;1.00;0.75;;;;;11.76;66.27;101161.22;5075734;28;45709;-74
2023/03/15 12:32:07;;;;;;;;;0.00;0.00;;;;;11.77;66.54;101152.38;5077404;28;45512;-71
2023/03/15 12:34:53;;;;;;;;;1.00;0.00;;;;;11.86;65.66;101144.84;5076570;28;46368;-73
2023/03/15 12:40:54;;;;;;;;;3.25;0.50;;;;;11.94;64.87;101146.00;5070863;28;45761;-73
2023/03/15 12:43:42;;;;;;;;;1.00;0.00;;;;;11.94;65.23;101142.53;5039297;28;45627;-73
2023/03/15 12:46:35;;;;;;;;;0.00;0.00;;;;;11.96;64.59;101138.03;5056638;28;46517;-73
2023/03/15 12:49:23;;;;;;;;;1.75;0.00;;;;;11.94;64.34;101138.13;5056151;28;46174;-73
2023/03/15 12:52:00;;;;;;;;;2.00;1.00;;;;;11.97;65.48;101134.47;5056088;28;45725;-73
2023/03/15 12:57:52;;;;;;;;;0.00;0.00;;;;;12.08;66.38;101130.16;5056063;28;46035;-72
2023/03/15 13:00:22;;;;;;;;;0.75;0.00;;;;;12.11;64.07;101126.47;5038042;28;46605;-73
2023/03/15 13:03:05;;;;;;;;;0.25;0.25;;;;;12.07;63.46;101117.97;5055975;28;45604;-73
2023/03/15 13:05:35;;;;;;;;;1.00;1.00;;;;;12.16;64.76;101133.06;5055930;28;45670;-72
2023/03/15 13:08:20;;;;;;;;;0.75;0.00;;;;;12.22;64.77;101121.31;5056150;28;46260;-74
2023/03/15 13:11:04;;;;;;;;;0.00;0.00;;;;;12.35;64.90;101129.19;5056304;28;46097;-73
2023/03/15 13:13:45;;;;;;;;;0.00;0.00;;;;;12.43;64.95;101119.78;5056062;28;45651;-74